Time;durP1;ratioP1;P1;durP2;ratioP2;P2;SDS_P1;SDS_P2;PMS_P1;PMS_P2;Temp;Humidity;BMP_temperature;BMP_pressure;BME280_temperature;BME280_humidity;BME280_pressure;Samples;Min_cycle;Max_cycle;Signal;HPM_P1;HPM_P2
2023/01/26 00:02:01;;;;;;;63.05;29.45;;;;;;;-0.54;99.33;101886.25;7393718;19;20014;-70
2023/01/26 00:04:29;;;;;;;67.75;32.45;;;;;;;-0.54;99.21;101881.09;7391880;19;20018;-70
2023/01/26 00:07:00;;;;;;;67.72;33.20;;;;;;;-0.55;99.07;101879.34;7393570;19;20017;-70
2023/01/26 00:09:29;;;;;;;59.22;29.63;;;;;;;-0.56;99.12;101879.28;7395133;19;20031;-70
2023/01/26 00:11:57;;;;;;;62.53;32.72;;;;;;;-0.56;99.43;101876.69;7400837;19;20018;-70
2023/01/26 00:14:26;;;;;;;59.00;32.92;;;;;;;-0.58;99.55;101866.31;7398688;19;20031;-70
2023/01/26 00:16:54;;;;;;;63.53;30.45;;;;;;;-0.56;99.74;101872.41;7398701;19;20010;-70
2023/01/26 00:19:23;;;;;;;65.22;31.05;;;;;;;-0.56;99.10;101869.84;7400626;19;20498;-70
2023/01/26 00:21:58;;;;;;;62.63;30.73;;;;;;;-0.56;99.42;101862.09;7400920;19;20018;-70
2023/01/26 00:24:29;;;;;;;62.95;30.17;;;;;;;-0.55;99.50;101855.25;7398046;19;20019;-71
2023/01/26 00:26:57;;;;;;;64.07;32.08;;;;;;;-0.55;99.22;101858.72;7400495;19;20481;-70
2023/01/26 00:29:26;;;;;;;67.43;32.00;;;;;;;-0.55;99.23;101858.72;7400302;19;20485;-71
2023/01/26 00:31:54;;;;;;;59.45;30.02;;;;;;;-0.56;99.24;101854.38;7400308;19;20023;-70
2023/01/26 00:34:23;;;;;;;59.45;31.00;;;;;;;-0.57;98.66;101857.78;7398292;19;20028;-70
2023/01/26 00:36:51;;;;;;;59.78;31.13;;;;;;;-0.59;98.39;101849.09;7398787;19;20075;-70
2023/01/26 00:39:20;;;;;;;66.78;29.98;;;;;;;-0.61;98.83;101842.97;7400378;19;20031;-70
2023/01/26 00:44:32;;;;;;;57.35;28.75;;;;;;;-0.63;98.96;101839.47;7398746;19;20029;-70
2023/01/26 00:47:00;;;;;;;64.13;30.55;;;;;;;-0.63;98.94;101836.91;7400137;19;20018;-71
2023/01/26 00:49:29;;;;;;;59.58;29.58;;;;;;;-0.62;99.62;101841.25;7400087;19;20083;-70
2023/01/26 00:51:57;;;;;;;68.30;31.80;;;;;;;-0.61;99.53;101840.41;7399925;19;20397;-70
2023/01/26 00:54:26;;;;;;;66.60;29.73;;;;;;;-0.60;99.28;101834.44;7397974;19;20022;-72
2023/01/26 00:56:57;;;;;;;59.05;29.33;;;;;;;-0.59;99.51;101836.22;7398124;19;20027;-72
2023/01/26 00:59:26;;;;;;;60.05;29.25;;;;;;;-0.57;99.52;101844.00;7399393;19;20419;-71
2023/01/26 01:01:55;;;;;;;61.92;29.35;;;;;;;-0.59;99.04;101836.22;7399484;19;20019;-71
2023/01/26 01:04:23;;;;;;;63.20;29.15;;;;;;;-0.59;99.10;101831.06;7397671;19;20387;-71
2023/01/26 01:06:52;;;;;;;68.03;29.10;;;;;;;-0.59;99.09;101836.22;7399398;19;20027;-71
2023/01/26 01:09:20;;;;;;;59.63;29.60;;;;;;;-0.58;99.36;101829.34;7399115;19;20014;-70
2023/01/26 01:11:49;;;;;;;57.72;27.00;;;;;;;-0.60;99.38;101834.44;7399242;19;20090;-69
2023/01/26 01:14:20;;;;;;;57.65;28.23;;;;;;;-0.60;98.72;101828.41;7397522;19;20026;-70
2023/01/26 01:16:48;;;;;;;56.72;27.30;;;;;;;-0.62;98.41;101824.88;7398102;19;20023;-70
2023/01/26 01:19:19;;;;;;;60.35;28.02;;;;;;;-0.63;98.67;101818.84;7398843;19;20014;-70
2023/01/26 01:21:47;;;;;;;56.45;26.98;;;;;;;-0.67;98.50;101819.53;7397596;19;20028;-71
2023/01/26 01:24:16;;;;;;;56.00;27.13;;;;;;;-0.66;98.65;101818.72;7396693;19;20014;-70
2023/01/26 01:26:44;;;;;;;60.00;26.35;;;;;;;-0.68;98.83;101810.94;7398676;19;20027;-71
2023/01/26 01:29:15;;;;;;;57.08;27.08;;;;;;;-0.67;98.86;101816.94;7398532;19;20014;-70
2023/01/26 01:31:46;;;;;;;56.08;26.85;;;;;;;-0.67;98.49;101811.78;7398999;19;20028;-71
2023/01/26 01:34:14;;;;;;;52.58;24.25;;;;;;;-0.70;98.15;101815.13;7396747;19;20014;-71
2023/01/26 01:36:43;;;;;;;51.53;25.05;;;;;;;-0.70;98.67;101807.38;7396981;19;20081;-70
2023/01/26 01:39:11;;;;;;;51.97;24.55;;;;;;;-0.70;98.84;101799.66;7398401;19;20015;-70
2023/01/26 01:41:40;;;;;;;51.78;24.80;;;;;;;-0.69;98.94;101797.97;7398310;19;20036;-72
2023/01/26 01:44:17;;;;;;;55.90;25.95;;;;;;;-0.69;98.98;101797.97;7396850;19;20022;-73
2023/01/26 01:46:55;;;;;;;51.28;24.08;;;;;;;-0.71;99.21;101786.72;7397844;19;20039;-70
2023/01/26 01:49:28;;;;;;;51.67;26.42;;;;;;;-0.67;99.35;101796.31;7398512;19;20023;-71
2023/01/26 01:52:00;;;;;;;59.53;26.75;;;;;;;-0.67;98.68;101791.16;7398365;19;20018;-70
2023/01/26 01:54:34;;;;;;;50.45;24.08;;;;;;;-0.67;98.22;101780.88;7396356;19;20018;-70
2023/01/26 01:57:14;;;;;;;48.25;24.77;;;;;;;-0.69;98.62;101783.38;7397071;19;20024;-70
2023/01/26 01:59:46;;;;;;;53.17;24.65;;;;;;;-0.69;98.81;101777.38;7398170;19;20041;-70
2023/01/26 02:02:17;;;;;;;53.28;26.23;;;;;;;-0.67;98.99;101771.44;7397360;19;20364;-71
2023/01/26 02:04:46;;;;;;;53.63;25.92;;;;;;;-0.67;99.22;101766.31;7395432;19;20039;-70
2023/01/26 02:07:15;;;;;;;54.17;24.85;;;;;;;-0.66;99.04;101762.91;7397475;19;20427;-70
2023/01/26 02:12:35;;;;;;;57.53;24.52;;;;;;;-0.72;98.75;101752.34;7398841;19;20002;-69
2023/01/26 02:15:05;;;;;;;58.10;25.90;;;;;;;-0.76;98.33;101739.25;7398276;19;20485;-70
2023/01/26 02:17:36;;;;;;;57.28;24.95;;;;;;;-0.73;98.78;101749.72;7396361;19;20014;-68
2023/01/26 02:20:11;;;;;;;60.58;24.92;;;;;;;-0.73;98.35;101752.28;7396649;19;20037;-69
2023/01/26 02:22:57;;;;;;;59.83;26.92;;;;;;;-0.77;98.63;101748.72;7396428;19;20025;-70
2023/01/26 02:25:35;;;;;;;54.45;24.73;;;;;;;-0.78;98.78;101744.38;7395164;19;20024;-68
2023/01/26 02:28:06;;;;;;;63.80;26.13;;;;;;;-0.79;98.81;101742.59;7396969;19;20023;-68
2023/01/26 02:30:35;;;;;;;58.38;26.67;;;;;;;-0.80;98.92;101742.53;7397140;19;20021;-69
2023/01/26 02:33:03;;;;;;;62.03;26.20;;;;;;;-0.85;99.19;101743.25;7393814;19;20018;-68
2023/01/26 02:35:32;;;;;;;58.30;23.83;;;;;;;-0.82;99.30;101743.34;7396484;19;20073;-68
2023/01/26 02:38:00;;;;;;;55.78;23.58;;;;;;;-0.83;99.44;101739.00;7395173;19;20070;-69
2023/01/26 02:40:39;;;;;;;61.72;27.75;;;;;;;-0.83;99.35;101741.59;7396342;19;20031;-68
2023/01/26 02:43:08;;;;;;;60.80;25.77;;;;;;;-0.83;99.40;101735.56;7396120;19;20035;-68
2023/01/26 02:45:37;;;;;;;56.25;24.33;;;;;;;-0.80;99.79;101735.69;7396180;19;20027;-68
2023/01/26 02:48:07;;;;;;;61.03;27.35;;;;;;;-0.79;99.88;101728.84;7396317;19;20026;-69
2023/01/26 02:50:33;;;;;;;59.85;24.90;;;;;;;-0.81;99.87;101728.75;7396034;19;20033;-68
2023/01/26 02:53:02;;;;;;;58.15;23.30;;;;;;;-0.76;99.81;101734.97;7395091;19;20477;-69
2023/01/26 02:55:28;;;;;;;57.05;24.98;;;;;;;-0.76;99.70;101736.69;7395714;19;20074;-69
2023/01/26 02:57:59;;;;;;;66.55;28.35;;;;;;;-0.75;99.59;101730.72;7394315;19;20498;-67
2023/01/26 03:00:33;;;;;;;64.18;26.58;;;;;;;-0.74;100.00;101727.34;7395254;19;20031;-66
2023/01/26 03:03:03;;;;;;;56.78;24.98;;;;;;;-0.72;99.80;101726.56;7395266;19;20385;-70
2023/01/26 03:05:32;;;;;;;52.15;23.02;;;;;;;-0.70;99.86;101730.06;7395450;19;20027;-69
2023/01/26 03:08:00;;;;;;;55.22;24.58;;;;;;;-0.68;100.00;101728.44;7395263;19;20014;-68
2023/01/26 03:10:29;;;;;;;53.67;25.15;;;;;;;-0.65;100.00;101725.13;7395881;19;20339;-69
2023/01/26 03:12:58;;;;;;;55.33;27.20;;;;;;;-0.65;100.00;101719.97;7395166;19;20422;-69
2023/01/26 03:28:56;;;;;;;44.22;20.65;;;;;;;-0.57;99.79;101710.84;7396786;19;20029;-69
2023/01/26 03:31:27;;;;;;;43.83;20.73;;;;;;;-0.56;99.89;101710.00;7397687;19;20011;-75
2023/01/26 03:33:56;;;;;;;46.63;20.08;;;;;;;-0.56;99.76;101714.28;7396437;19;20039;-68
2023/01/26 03:36:24;;;;;;;45.00;20.02;;;;;;;-0.57;99.82;101707.38;7394643;19;20014;-68
2023/01/26 03:38:53;;;;;;;45.25;20.83;;;;;;;-0.57;99.88;101703.13;7394994;19;20431;-69
2023/01/26 03:57:30;;;;;;;45.42;21.00;;;;;;;-0.52;99.91;101696.44;7400738;19;20015;-68
2023/01/26 03:59:59;;;;;;;40.55;20.45;;;;;;;-0.52;99.73;101693.84;7401248;19;20477;-68
2023/01/26 04:10:39;;;;;;;45.28;22.15;;;;;;;-0.50;99.68;101701.66;7401178;19;20557;-68
2023/01/26 04:23:56;;;;;;;58.60;31.25;;;;;;;-0.53;99.65;101697.25;7399530;19;20342;-68
2023/01/26 04:26:25;;;;;;;51.58;23.60;;;;;;;-0.61;98.81;101687.47;7400686;19;20011;-68
2023/01/26 04:28:54;;;;;;;41.70;18.00;;;;;;;-0.61;97.84;101688.31;7400711;19;20010;-67
2023/01/26 04:31:22;;;;;;;52.35;20.67;;;;;;;-0.65;98.58;101686.44;7400607;19;20010;-68
2023/01/26 04:33:53;;;;;;;44.20;17.23;;;;;;;-0.67;98.92;101688.06;7398974;19;20014;-67
2023/01/26 04:36:22;;;;;;;44.50;17.92;;;;;;;-0.69;99.29;101684.59;7400546;19;20022;-68
2023/01/26 04:38:51;;;;;;;47.25;18.48;;;;;;;-0.69;99.49;101684.59;7400257;19;20015;-68
2023/01/26 04:41:19;;;;;;;41.70;19.05;;;;;;;-0.70;98.85;101683.69;7400981;19;20078;-69
2023/01/26 04:43:48;;;;;;;46.38;18.55;;;;;;;-0.73;98.69;101685.28;7398771;19;20018;-69
2023/01/26 04:46:16;;;;;;;46.42;18.70;;;;;;;-0.78;98.84;101676.47;7399664;19;20023;-68
2023/01/26 04:48:45;;;;;;;47.83;17.15;;;;;;;-0.79;99.20;101674.72;7399425;19;20428;-69
2023/01/26 04:51:18;;;;;;;42.10;17.88;;;;;;;-0.80;99.22;101676.41;7399323;19;20014;-68
2023/01/26 04:53:47;;;;;;;51.40;21.07;;;;;;;-0.79;99.43;101677.31;7398709;19;20019;-68
2023/01/26 04:56:22;;;;;;;43.65;16.55;;;;;;;-0.80;99.53;101672.97;7397550;19;20347;-69
2023/01/26 04:59:00;;;;;;;45.75;17.45;;;;;;;-0.79;99.58;101673.03;7396961;19;20070;-68
2023/01/26 05:01:29;;;;;;;47.45;18.67;;;;;;;-0.77;99.96;101667.91;7400062;19;20031;-69
2023/01/26 05:03:57;;;;;;;44.42;18.33;;;;;;;-0.76;99.72;101670.56;7397432;19;20022;-69
2023/01/26 05:06:28;;;;;;;42.70;17.83;;;;;;;-0.75;99.80;101674.91;7398961;19;20019;-69
2023/01/26 05:08:57;;;;;;;42.78;17.70;;;;;;;-0.73;99.66;101673.28;7398983;19;20014;-69
2023/01/26 05:11:26;;;;;;;45.47;17.75;;;;;;;-0.74;99.84;101668.06;7398802;19;20015;-68
2023/01/26 05:13:54;;;;;;;45.30;18.33;;;;;;;-0.73;99.99;101672.41;7398201;19;20014;-69
2023/01/26 05:16:23;;;;;;;39.70;15.90;;;;;;;-0.74;99.61;101666.34;7398843;19;20039;-69
2023/01/26 05:18:51;;;;;;;46.60;18.45;;;;;;;-0.74;99.78;101666.34;7396733;19;20084;-67
2023/01/26 05:21:23;;;;;;;36.35;17.30;;;;;;;-0.72;100.00;101668.97;7398766;19;20010;-67
2023/01/26 05:23:54;;;;;;;40.60;17.98;;;;;;;-0.71;99.88;101665.59;7398213;19;20007;-67
2023/01/26 05:26:23;;;;;;;42.45;16.73;;;;;;;-0.72;99.96;101663.81;7398968;19;20037;-68
2023/01/26 05:28:51;;;;;;;36.17;16.50;;;;;;;-0.73;99.95;101657.81;7398450;19;20039;-66
2023/01/26 05:31:20;;;;;;;36.47;15.00;;;;;;;-0.74;99.56;101655.19;7398214;19;20014;-68
2023/01/26 05:33:48;;;;;;;39.60;14.82;;;;;;;-0.78;99.57;101656.75;7397177;19;20018;-67
2023/01/26 05:36:17;;;;;;;38.13;16.92;;;;;;;-0.78;99.74;101668.72;7398068;19;20022;-67
2023/01/26 05:38:46;;;;;;;39.42;15.35;;;;;;;-0.80;100.00;101666.09;7396003;19;20006;-68
2023/01/26 05:41:17;;;;;;;43.22;16.02;;;;;;;-0.80;99.98;101665.25;7397171;19;20130;-68
2023/01/26 05:43:45;;;;;;;37.38;15.23;;;;;;;-0.83;99.70;101661.72;7397013;19;20015;-69
2023/01/26 05:46:14;;;;;;;41.90;16.73;;;;;;;-0.87;99.54;101649.53;7397430;19;20015;-68
2023/01/26 05:48:42;;;;;;;36.38;15.15;;;;;;;-0.89;99.80;101650.28;7397435;19;20031;-68
2023/01/26 05:51:11;;;;;;;45.17;16.27;;;;;;;-0.93;99.73;101654.44;7397541;19;20015;-67
2023/01/26 05:53:39;;;;;;;37.08;14.20;;;;;;;-0.95;99.60;101660.34;7396038;19;20031;-69
2023/01/26 05:56:08;;;;;;;40.15;15.32;;;;;;;-0.99;99.92;101664.50;7397438;19;20485;-68
2023/01/26 05:58:40;;;;;;;41.67;16.13;;;;;;;-1.00;99.99;101658.47;7394976;19;20090;-68
2023/01/26 06:01:08;;;;;;;39.33;14.65;;;;;;;-1.04;99.96;101668.56;7397238;19;20026;-68
2023/01/26 06:03:37;;;;;;;36.42;14.68;;;;;;;-1.06;100.00;101665.94;7395457;19;20379;-68
2023/01/26 06:06:06;;;;;;;35.70;12.50;;;;;;;-1.06;100.00;101673.69;7396556;19;20026;-68
2023/01/26 06:08:34;;;;;;;38.75;13.82;;;;;;;-1.06;100.00;101677.94;7392714;19;20014;-67
2023/01/26 06:11:03;;;;;;;39.53;14.13;;;;;;;-1.07;100.00;101686.50;7396207;19;20029;-66
2023/01/26 06:13:31;;;;;;;39.72;14.75;;;;;;;-1.08;100.00;101675.28;7395310;19;20096;-68
2023/01/26 06:16:05;;;;;;;41.08;14.32;;;;;;;-1.09;100.00;101673.53;7396699;19;20032;-69
2023/01/26 06:18:33;;;;;;;36.17;14.53;;;;;;;-1.09;100.00;101672.66;7395670;19;20042;-68
2023/01/26 06:21:02;;;;;;;41.33;14.43;;;;;;;-1.10;100.00;101682.09;7395954;19;20033;-67
2023/01/26 06:23:31;;;;;;;42.67;15.20;;;;;;;-1.10;100.00;101681.22;7393217;19;20022;-70
2023/01/26 06:26:01;;;;;;;45.92;15.65;;;;;;;-1.11;100.00;101682.00;7396137;19;20027;-68
2023/01/26 06:28:30;;;;;;;40.58;14.68;;;;;;;-1.11;100.00;101684.59;7395701;19;20039;-67
2023/01/26 06:31:04;;;;;;;44.03;15.13;;;;;;;-1.11;100.00;101689.75;7394706;19;20378;-68
2023/01/26 06:33:34;;;;;;;42.35;15.07;;;;;;;-1.10;100.00;101694.97;7394873;19;20026;-68
2023/01/26 06:36:03;;;;;;;38.65;13.88;;;;;;;-1.09;100.00;101690.69;7394487;19;20485;-68
2023/01/26 06:38:32;;;;;;;40.08;14.80;;;;;;;-1.11;100.00;101684.59;7393856;19;20057;-68
2023/01/26 06:41:02;;;;;;;44.20;16.10;;;;;;;-1.13;100.00;101689.69;7395475;19;20028;-68
2023/01/26 06:43:31;;;;;;;43.70;15.98;;;;;;;-1.19;100.00;101681.69;7394228;19;20361;-68
2023/01/26 06:46:00;;;;;;;36.58;13.93;;;;;;;-1.15;100.00;101681.91;7395291;19;20035;-69
2023/01/26 06:48:33;;;;;;;40.35;15.55;;;;;;;-1.18;100.00;101679.19;7395196;19;20035;-67
2023/01/26 06:51:27;;;;;;;44.22;15.52;;;;;;;-1.19;100.00;101682.59;7395063;19;20039;-67
2023/01/26 06:53:57;;;;;;;33.67;13.15;;;;;;;-1.19;100.00;101681.69;7394034;19;20022;-67
2023/01/26 06:56:27;;;;;;;38.90;15.43;;;;;;;-1.24;100.00;101671.22;7395240;19;20035;-68
2023/01/26 06:58:56;;;;;;;37.40;13.63;;;;;;;-1.21;100.00;101668.78;7395271;19;20037;-69
2023/01/26 07:01:28;;;;;;;37.85;14.90;;;;;;;-1.18;100.00;101675.75;7396130;19;20099;-68
2023/01/26 07:03:59;;;;;;;38.05;14.43;;;;;;;-1.20;99.97;101667.97;7394091;19;20015;-68
2023/01/26 07:06:27;;;;;;;35.95;14.77;;;;;;;-1.23;100.00;101662.66;7394705;19;20018;-68
2023/01/26 07:08:56;;;;;;;37.45;13.68;;;;;;;-1.22;100.00;101669.56;7394655;19;20035;-69
2023/01/26 07:11:24;;;;;;;37.47;15.18;;;;;;;-1.22;100.00;101669.56;7395434;19;20019;-68
2023/01/26 07:13:53;;;;;;;39.38;14.50;;;;;;;-1.19;100.00;101685.19;7394212;19;20025;-69
2023/01/26 07:16:21;;;;;;;41.63;15.07;;;;;;;-1.18;100.00;101680.88;7394706;19;20015;-68
2023/01/26 07:18:50;;;;;;;36.88;13.95;;;;;;;-1.17;100.00;101680.94;7392020;19;20493;-67
2023/01/26 07:21:21;;;;;;;32.05;14.38;;;;;;;-1.17;100.00;101683.53;7394787;19;20028;-68
2023/01/26 07:23:52;;;;;;;40.50;15.90;;;;;;;-1.18;100.00;101684.34;7393628;19;20041;-68
2023/01/26 07:26:21;;;;;;;44.42;17.60;;;;;;;-1.17;100.00;101685.22;7394559;19;20413;-68
2023/01/26 07:28:50;;;;;;;43.60;17.05;;;;;;;-1.18;100.00;101684.34;7394547;19;20032;-69
2023/01/26 07:31:18;;;;;;;44.95;18.73;;;;;;;-1.17;100.00;101678.38;7395430;19;20023;-70
2023/01/26 07:33:47;;;;;;;43.63;17.88;;;;;;;-1.17;100.00;101669.78;7396079;19;20035;-67
2023/01/26 07:36:15;;;;;;;43.35;15.25;;;;;;;-1.17;100.00;101675.78;7395720;19;20091;-68
2023/01/26 07:38:47;;;;;;;35.50;15.05;;;;;;;-1.16;100.00;101674.13;7392787;19;20015;-67
2023/01/26 07:41:15;;;;;;;31.63;14.65;;;;;;;-1.18;100.00;101674.03;7393242;19;20011;-69
2023/01/26 07:43:44;;;;;;;31.95;13.55;;;;;;;-1.19;100.00;101676.56;7393045;19;20041;-70
2023/01/26 07:46:13;;;;;;;37.10;14.88;;;;;;;-1.21;99.73;101684.22;7393837;19;20022;-68
2023/01/26 07:48:41;;;;;;;39.78;15.52;;;;;;;-1.21;100.00;101686.78;7393862;19;20113;-68
2023/01/26 07:51:10;;;;;;;37.17;13.98;;;;;;;-1.19;100.00;101681.69;7394204;19;20015;-68
2023/01/26 07:53:41;;;;;;;34.03;14.38;;;;;;;-1.23;100.00;101670.38;7393196;19;20025;-68
2023/01/26 07:56:14;;;;;;;38.30;15.00;;;;;;;-1.20;100.00;101675.69;7393462;19;20015;-67
2023/01/26 07:58:44;;;;;;;31.70;12.40;;;;;;;-1.20;99.67;101679.94;7393174;19;20074;-69
2023/01/26 08:01:14;;;;;;;32.08;13.77;;;;;;;-1.20;100.00;101680.84;7393498;19;20067;-69
2023/01/26 08:03:44;;;;;;;35.08;14.60;;;;;;;-1.18;99.44;101688.63;7391940;19;20351;-70
2023/01/26 08:06:13;;;;;;;32.13;15.02;;;;;;;-1.17;99.97;101691.25;7393133;19;20023;-69
2023/01/26 08:08:43;;;;;;;32.63;13.95;;;;;;;-1.17;100.00;101691.25;7393326;19;20024;-67
2023/01/26 08:11:14;;;;;;;28.33;13.70;;;;;;;-1.13;99.99;101696.53;7392874;19;20018;-67
2023/01/26 08:13:43;;;;;;;21.98;10.93;;;;;;;-1.11;99.49;101700.03;7392642;19;20035;-67
2023/01/26 08:16:13;;;;;;;27.58;11.90;;;;;;;-1.12;98.32;101703.47;7392921;19;20018;-68
2023/01/26 08:18:42;;;;;;;26.23;11.55;;;;;;;-1.15;98.10;101699.94;7390738;19;20014;-68
2023/01/26 08:21:11;;;;;;;26.38;11.45;;;;;;;-1.18;97.82;101694.63;7393520;19;20022;-68
2023/01/26 08:23:40;;;;;;;20.95;10.95;;;;;;;-1.20;97.19;101695.38;7392085;19;20043;-67
2023/01/26 08:26:18;;;;;;;23.40;11.57;;;;;;;-1.29;97.53;101685.59;7390190;19;20021;-67
2023/01/26 08:28:50;;;;;;;23.95;11.95;;;;;;;-1.24;98.05;101693.50;7392559;19;20077;-67
2023/01/26 08:31:21;;;;;;;25.38;11.15;;;;;;;-1.27;97.82;101690.81;7395701;19;20019;-68
2023/01/26 08:33:53;;;;;;;25.30;11.88;;;;;;;-1.27;97.61;101694.25;7398383;19;20021;-68
2023/01/26 08:36:22;;;;;;;25.38;11.50;;;;;;;-1.31;97.93;101684.66;7399656;19;20195;-68
2023/01/26 08:38:51;;;;;;;27.55;12.07;;;;;;;-1.34;98.17;101687.09;7398045;19;20031;-68
2023/01/26 08:41:20;;;;;;;27.88;14.32;;;;;;;-1.26;99.01;101696.03;7399549;19;20031;-67
2023/01/26 08:43:52;;;;;;;25.80;12.10;;;;;;;-1.28;98.78;101689.91;7397995;19;20022;-68
2023/01/26 08:46:21;;;;;;;29.10;12.43;;;;;;;-1.23;98.83;101688.41;7399229;19;20026;-68
2023/01/26 08:48:49;;;;;;;28.58;14.52;;;;;;;-1.21;98.91;101691.94;7398529;19;20014;-68
2023/01/26 08:51:18;;;;;;;31.92;13.93;;;;;;;-1.21;99.16;101694.53;7398949;19;20027;-68
2023/01/26 08:53:46;;;;;;;29.23;13.00;;;;;;;-1.24;98.62;101691.84;7397632;19;20032;-68
2023/01/26 08:56:15;;;;;;;28.85;13.50;;;;;;;-1.21;99.16;101699.66;7399540;19;20021;-68
2023/01/26 08:58:44;;;;;;;33.20;14.90;;;;;;;-1.20;99.44;101695.38;7397719;19;20031;-67
2023/01/26 09:01:16;;;;;;;33.10;13.55;;;;;;;-1.23;98.38;101697.84;7399269;19;20020;-68
2023/01/26 09:03:46;;;;;;;25.25;11.77;;;;;;;-1.26;99.05;101688.31;7398145;19;20043;-69
2023/01/26 09:06:16;;;;;;;30.02;13.02;;;;;;;-1.21;99.46;101696.22;7398734;19;20015;-68
2023/01/26 09:08:44;;;;;;;29.80;13.05;;;;;;;-1.21;99.48;101691.06;7398520;19;20026;-68
2023/01/26 09:11:13;;;;;;;26.63;11.48;;;;;;;-1.21;98.71;101698.81;7398904;19;20015;-69
2023/01/26 09:13:44;;;;;;;25.08;11.20;;;;;;;-1.27;99.09;101689.13;7397599;19;20078;-68
2023/01/26 09:16:20;;;;;;;26.25;12.48;;;;;;;-1.24;98.56;101704.72;7397282;19;20006;-68
2023/01/26 09:18:51;;;;;;;30.15;13.88;;;;;;;-1.35;98.25;101695.66;7398124;19;20011;-69
2023/01/26 09:21:19;;;;;;;31.40;13.77;;;;;;;-1.29;98.93;101707.88;7398504;19;20378;-68
2023/01/26 09:23:48;;;;;;;31.95;13.35;;;;;;;-1.29;99.22;101710.47;7397233;19;20442;-67
2023/01/26 09:26:17;;;;;;;28.52;12.05;;;;;;;-1.31;99.21;101698.41;7396998;19;20025;-67
2023/01/26 09:28:45;;;;;;;35.90;14.48;;;;;;;-1.29;99.27;101705.31;7398517;19;20027;-66
2023/01/26 09:31:16;;;;;;;29.30;14.10;;;;;;;-1.29;99.24;101706.19;7397514;19;20021;-66
2023/01/26 09:33:45;;;;;;;30.23;13.88;;;;;;;-1.27;99.72;101711.41;7397232;19;20019;-67
2023/01/26 09:36:14;;;;;;;35.58;14.55;;;;;;;-1.25;99.61;101714.91;7397898;19;20018;-67
2023/01/26 09:38:42;;;;;;;31.30;13.10;;;;;;;-1.24;99.97;101712.44;7397194;19;20014;-68
2023/01/26 09:41:26;;;;;;;26.08;10.77;;;;;;;-1.23;99.80;101711.59;7398620;19;20053;-67
2023/01/26 09:43:58;;;;;;;27.33;10.93;;;;;;;-1.23;99.51;101709.00;7397218;19;20014;-68
2023/01/26 09:46:39;;;;;;;31.13;12.70;;;;;;;-1.24;99.77;101709.84;7398361;19;20026;-67
2023/01/26 09:49:10;;;;;;;29.75;10.63;;;;;;;-1.24;98.99;101708.97;7397351;19;20010;-67
2023/01/26 09:51:44;;;;;;;28.05;12.75;;;;;;;-1.24;99.23;101702.13;7395529;19;20396;-67
2023/01/26 09:54:23;;;;;;;28.15;12.73;;;;;;;-1.22;99.45;101703.06;7396324;19;20031;-67
2023/01/26 09:56:51;;;;;;;28.85;11.52;;;;;;;-1.22;99.37;101705.63;7397866;19;20019;-67
2023/01/26 09:59:30;;;;;;;27.33;12.15;;;;;;;-1.21;98.70;101709.09;7397817;19;20010;-66
2023/01/26 10:02:07;;;;;;;26.08;11.65;;;;;;;-1.26;98.53;101706.31;7397334;19;20014;-67
2023/01/26 10:04:39;;;;;;;26.38;11.77;;;;;;;-1.25;98.25;101707.19;7395782;19;20023;-67
2023/01/26 10:07:13;;;;;;;27.25;13.00;;;;;;;-1.27;98.01;101709.72;7395402;19;20014;-68
2023/01/26 10:09:44;;;;;;;25.95;12.82;;;;;;;-1.26;98.69;101706.31;7397975;19;20037;-67
2023/01/26 10:12:20;;;;;;;30.20;13.38;;;;;;;-1.33;98.66;101696.56;7396834;19;20037;-67
2023/01/26 10:14:53;;;;;;;23.88;11.68;;;;;;;-1.25;98.15;101700.38;7395066;19;20522;-67
2023/01/26 10:17:30;;;;;;;28.50;12.98;;;;;;;-1.29;98.12;101698.47;7395760;19;20411;-67
2023/01/26 10:20:04;;;;;;;23.33;11.50;;;;;;;-1.32;98.52;101686.34;7395067;19;20018;-66
2023/01/26 10:22:40;;;;;;;23.85;12.45;;;;;;;-1.32;98.33;101685.47;7396661;19;20343;-67
2023/01/26 10:25:17;;;;;;;23.95;12.18;;;;;;;-1.28;99.02;101694.19;7396191;19;20010;-67
2023/01/26 10:27:47;;;;;;;26.23;11.38;;;;;;;-1.26;99.08;101689.97;7396176;19;20486;-67
2023/01/26 10:30:17;;;;;;;25.42;12.60;;;;;;;-1.29;98.89;101680.44;7395935;19;20020;-66
2023/01/26 10:32:52;;;;;;;26.48;12.73;;;;;;;-1.30;98.74;101678.69;7396432;19;20019;-66
2023/01/26 10:35:27;;;;;;;28.38;13.38;;;;;;;-1.29;98.03;101685.59;7394594;19;20075;-67
2023/01/26 10:37:57;;;;;;;25.90;13.68;;;;;;;-1.32;98.39;101672.59;7395840;19;20035;-65
2023/01/26 10:40:26;;;;;;;26.80;11.50;;;;;;;-1.33;99.06;101669.16;7393956;19;20034;-66
2023/01/26 10:42:59;;;;;;;26.23;13.98;;;;;;;-1.36;99.29;101666.44;7395590;19;20014;-65
2023/01/26 10:45:31;;;;;;;24.23;12.43;;;;;;;-1.33;97.67;101668.25;7395719;19;20039;-66
2023/01/26 10:48:16;;;;;;;27.35;13.27;;;;;;;-1.50;96.69;101655.56;7396118;19;20849;-66
2023/01/26 10:50:44;;;;;;;23.02;13.02;;;;;;;-1.42;97.43;101665.31;7395098;19;20025;-65
2023/01/26 10:53:18;;;;;;;27.10;12.50;;;;;;;-1.46;97.50;101660.84;7392547;19;20489;-67
2023/01/26 10:56:01;;;;;;;23.73;12.13;;;;;;;-1.49;97.79;101667.63;7396031;19;20023;-66
2023/01/26 10:58:49;;;;;;;20.20;11.60;;;;;;;-1.46;97.96;101663.44;7396334;19;20041;-66
2023/01/26 11:01:26;;;;;;;23.60;12.07;;;;;;;-1.46;98.13;101656.56;7395365;19;20010;-66
2023/01/26 11:04:10;;;;;;;25.08;12.73;;;;;;;-1.49;97.44;101652.16;7394013;19;20553;-66
2023/01/26 11:06:39;;;;;;;22.40;13.27;;;;;;;-1.42;98.15;101652.44;7395546;19;20018;-66
2023/01/26 11:09:21;;;;;;;21.70;12.35;;;;;;;-1.38;98.30;101651.75;7393567;19;20407;-66
2023/01/26 11:12:04;;;;;;;29.73;16.88;;;;;;;-1.37;98.39;101644.06;7397189;19;20034;-67
2023/01/26 11:14:34;;;;;;;20.40;11.60;;;;;;;-1.37;97.39;101653.50;7394627;19;20017;-67
2023/01/26 11:17:16;;;;;;;20.02;11.07;;;;;;;-1.36;97.16;101652.69;7394860;19;20434;-69
2023/01/26 11:20:06;;;;;;;21.67;11.82;;;;;;;-1.37;97.21;101645.78;7393924;19;20018;-67
2023/01/26 11:22:45;;;;;;;22.13;12.65;;;;;;;-1.37;97.95;101645.78;7394766;19;20014;-68
2023/01/26 11:25:26;;;;;;;19.35;10.73;;;;;;;-1.40;98.12;101641.38;7394473;19;20006;-67
2023/01/26 11:28:07;;;;;;;19.05;10.52;;;;;;;-1.32;98.03;101642.56;7394353;19;20031;-67
2023/01/26 11:30:45;;;;;;;20.00;10.75;;;;;;;-1.30;97.56;101634.94;7395638;19;20015;-67
2023/01/26 11:33:22;;;;;;;20.05;10.90;;;;;;;-1.29;96.88;101630.66;7395284;19;20064;-68
2023/01/26 11:36:03;;;;;;;24.58;12.68;;;;;;;-1.30;97.12;101632.34;7395336;19;20035;-67
2023/01/26 11:38:39;;;;;;;20.00;10.68;;;;;;;-1.31;97.04;101626.31;7395559;19;20027;-66
2023/01/26 11:41:25;;;;;;;16.75;10.45;;;;;;;-1.30;96.18;101624.63;7395419;19;20035;-67
2023/01/26 11:44:19;;;;;;;24.90;14.05;;;;;;;-1.29;97.08;101612.63;7393568;19;20074;-67
2023/01/26 11:47:17;;;;;;;23.10;13.70;;;;;;;-1.27;97.04;101609.28;7395656;19;20015;-67
2023/01/26 11:49:59;;;;;;;22.85;12.02;;;;;;;-1.26;96.15;101610.16;7392357;19;20032;-67
2023/01/26 11:52:42;;;;;;;19.63;10.38;;;;;;;-1.25;96.96;101606.78;7394021;19;20351;-67
2023/01/26 11:55:26;;;;;;;18.98;10.45;;;;;;;-1.33;97.46;101594.50;7394169;19;20035;-67
2023/01/26 11:58:13;;;;;;;20.02;12.30;;;;;;;-1.23;97.61;101603.44;7394124;19;20014;-67
2023/01/26 12:00:44;;;;;;;20.27;12.18;;;;;;;-1.21;97.67;101599.25;7392700;19;20027;-67
2023/01/26 12:03:22;;;;;;;19.25;11.93;;;;;;;-1.21;96.84;101595.81;7393726;19;20036;-67
2023/01/26 12:05:55;;;;;;;21.40;11.85;;;;;;;-1.23;97.20;101590.56;7396318;19;20107;-66
2023/01/26 12:08:37;;;;;;;23.00;12.68;;;;;;;-1.20;98.00;101592.38;7400749;19;20481;-67
2023/01/26 12:11:25;;;;;;;23.00;12.18;;;;;;;-1.16;97.77;101590.00;7400939;19;20039;-66
2023/01/26 12:14:18;;;;;;;16.70;10.20;;;;;;;-1.15;95.51;101584.03;7398697;19;20018;-67
2023/01/26 12:17:03;;;;;;;17.88;9.57;;;;;;;-1.18;95.30;101586.47;7399751;19;20389;-66
2023/01/26 12:19:41;;;;;;;21.10;10.73;;;;;;;-1.23;95.10;101580.25;7399405;19;20071;-67
2023/01/26 12:22:17;;;;;;;20.20;11.35;;;;;;;-1.28;96.42;101570.63;7399824;19;20031;-68